Flight Track Log - Related Links

Times and Time Zones

All times are in EST time to prevent confusion due to time zone crossing. See the SWA4296 flight status page for this flight to view local times or setup timezone preferences in your user account.

Time Position Orientation Groundspeed Altitude Reporting Facility
EST Latitude Longitude Course Direction KTS MPH feet Rate Location/Type
Sat 09:25:52 PM 33.5558 -117.8864 175° South 211 243 5,200  Level Los Angeles Center
Sat 09:26:53 PM 33.5558 -117.7861 90° East 255 293 9,300 3,463 Climbing Los Angeles Center
Sat 09:27:55 PM 33.5656 -117.6825 84° East 301 346 12,300 3,268 Climbing Los Angeles Center
Sat 09:28:56 PM 33.5761 -117.5653 84° East 348 400 16,000 3,512 Climbing Los Angeles Center
Sat 09:29:00 PM 33.6606 -117.1327 68° East  Level Estimated
Sat 09:29:58 PM 33.5844 -117.4461 85° East 359 413 19,500  Level Los Angeles Center
Sat 09:30:00 PM 33.6576 -117.0101 90° East  Level Estimated
Sat 09:30:59 PM 33.5900 -117.3186 87° East 380 437 22,300  Level Los Angeles Center
Sat 09:32:01 PM 33.5944 -117.1853 88° East 399 459 23,600 1,306 Climbing Los Angeles Center
Sat 09:33:03 PM 33.5986 -117.0517 88° East 402 463 25,000 1,171 Climbing Los Angeles Center
Sat 09:34:04 PM 33.6044 -116.8906 87° East 405 466 26,000 1,659 Climbing Los Angeles Center
Sat 09:35:06 PM 33.6092 -116.7567 88° East 410 472 28,400 2,146 Climbing Los Angeles Center
Sat 09:36:07 PM 33.6136 -116.6164 88° East 417 480 30,400 1,268 Climbing Los Angeles Center
Sat 09:37:09 PM 33.6183 -116.4697 88° East 433 498 31,000 293 Climbing Los Angeles Center
Sat 09:38:10 PM 33.6228 -116.3142 88° East 455 524 31,000  Level Los Angeles Center
Sat 09:39:12 PM 33.6269 -116.1508 88° East 476 548 31,000  Level Los Angeles Center
Sat 09:40:13 PM 33.6250 -115.9903 91° East 480 552 31,000  Level Los Angeles Center
Sat 09:41:15 PM 33.6208 -115.8303 92° East 478 550 31,000  Level Los Angeles Center
Sat 09:42:16 PM 33.6175 -115.6375 91° East 480 552 31,000  Level Los Angeles Center
Sat 09:43:17 PM 33.6119 -115.4775 92° East 479 551 31,000  Level Los Angeles Center
Sat 09:44:19 PM 33.6081 -115.3158 92° East 483 556 31,000 -49 Level Los Angeles Center
Sat 09:45:20 PM 33.6047 -115.1517 91° East 491 565 30,900 -585 Descending Los Angeles Center
Sat 09:46:22 PM 33.6003 -114.9961 92° East 470 541 29,800 -1,073 Descending Los Angeles Center
Sat 09:47:23 PM 33.5964 -114.8500 92° East 443 510 28,700 -1,022 Descending Los Angeles Center
Sat 09:48:37 PM 33.5786 -114.6803 97° East 432 497 27,500 -978 Descending Los Angeles Center
Sat 09:49:38 PM 33.5525 -114.5458 103° East 417 480 26,500 -1,024 Descending Los Angeles Center
Sat 09:50:40 PM 33.5261 -114.4172 104° East 401 461 25,400 -732 Descending Los Angeles Center
Sat 09:51:41 PM 33.4972 -114.2650 103° East 395 455 25,000 -195 Descending Los Angeles Center
Sat 09:52:43 PM 33.4722 -114.1386 103° East 391 450 25,000  Level Los Angeles Center
Sat 09:53:44 PM 33.4469 -114.0103 103° East 396 456 25,000  Level Los Angeles Center
Sat 09:54:56 PM 33.4214 -113.8733 103° East 394 453 25,000 -90 Level Albuquerque Center
Sat 09:55:57 PM 33.3969 -113.7467 103° East 391 450 24,800 -934 Descending Albuquerque Center
Sat 09:56:58 PM 33.3706 -113.6222 104° East 388 447 23,100 -1,869 Descending Albuquerque Center
Sat 09:57:59 PM 33.3419 -113.4789 103° East 373 429 21,000 -1,820 Descending Albuquerque Center
Sat 09:59:00 PM 33.3178 -113.3625 104° East 364 419 19,400 -1,574 Descending Albuquerque Center
Sat 10:00:01 PM 33.2939 -113.2494 104° East 355 409 17,800 -1,623 Descending Albuquerque Center
Sat 10:01:02 PM 33.2731 -113.1369 102° East 348 400 16,100 -1,623 Descending Albuquerque Center
Sat 10:02:03 PM 33.2753 -113.0247 89° East 336 387 14,500 -1,574 Descending Albuquerque Center
Sat 10:03:04 PM 33.2778 -112.9172 88° East 331 381 12,900 -1,561 Descending Albuquerque Center
Sat 10:04:06 PM 33.2831 -112.8086 87° East 327 376 11,300 -1,415 Descending Albuquerque Center
Sat 10:05:07 PM 33.3203 -112.7156 64° Northeast 322 371 10,000 -934 Descending Albuquerque Center
Sat 10:06:08 PM 33.3531 -112.6289 66° East 303 349 9,400 -836 Descending Albuquerque Center
Sat 10:07:09 PM 33.3836 -112.5489 65° Northeast 273 314 8,300 -836 Descending Albuquerque Center
Sat 10:08:10 PM 33.4114 -112.4742 66° East 249 287 7,700 -787 Descending Albuquerque Center
Sat 10:09:11 PM 33.4300 -112.3939 74° East 252 290 6,700 -1,180 Descending Albuquerque Center
Sat 10:10:12 PM 33.4286 -112.2953 91° East 248 285 5,300 -1,230 Descending Albuquerque Center
Sat 10:11:13 PM 33.4286 -112.2172 90° East 238 274 4,200 -1,082 Descending Albuquerque Center
Sat 10:12:14 PM 33.4283 -112.1492 90° East 212 244 3,100 -1,041 Descending Albuquerque Center
Sat 10:13:14 PM 33.4333 -112.1000 83° East 158 182 2,100 -842 Descending Phoenix TRACON
Sat 10:14:08 PM 33.4333 -112.0500 90° East 145 167 1,500 -667 Descending Phoenix TRACON
Sat 10:16:00 PM 33.4343 -112.0116 79° East  Level Estimated

Login

Don't have an account? Register now (free) for customized features, flight alerts, and more!